EmailTwitter


Surface observations / Quebec / CYSC

Regions: Quebec | Canada | USA | Europe | France | UK | Elsewhere
Station
Display
Info & Location for CYSC | Help decoding METAR

Weather Conditions observed on 2019/01/17 at 21:00 UTC at SHERBROOKE, QB (CYSC)

Sky conditions: few clouds.

Temperature: -15.0 Celsius.

Dewpoint: -23.0 Celsius.

Relative Humidity: 51%

Windchill Factor: -19.

Winds: South-southwest at 6 km/h or 3 knots.

Mean Sea level Pressure: 102.83 kilopascals.

Altimeter Setting (QNH): 102.57 kilopascals or 30.29 inches of mercury.

Horizontal visibility: 9.00 statute miles or 14.40 kilometers.

Coded METAR:

CYSC 172100Z AUTO 20003KT 9SM FEW240 M15/M23 A3029 RMK SLP283=